Time,TemperatureF,DewpointF,PressureIn,WindDirection,WindDirectionDegrees,WindSpeedMPH,WindSpeedGustMPH,Humidity,HourlyPrecipIn,Conditions,Clouds,dailyrainin,SoftwareType,DateUTC
2014-01-08 00:02:00,8.5,2.8,30.39,SSW,193,7.0,8.0,77,0.00,,,0.00,Wunderground v.1.15,2014-01-08 05:02:00,
2014-01-08 00:04:00,8.5,2.8,30.39,South,188,7.0,8.0,77,0.00,,,0.00,Wunderground v.1.15,2014-01-08 05:04:00,
2014-01-08 00:06:00,8.5,2.8,30.39,SSW,195,7.0,8.0,77,0.00,,,0.00,Wunderground v.1.15,2014-01-08 05:06:00,
2014-01-08 00:08:00,8.5,2.8,30.39,SSE,149,6.0,8.0,77,0.00,,,0.00,Wunderground v.1.15,2014-01-08 05:08:00,
2014-01-08 00:12:00,8.5,2.8,30.39,SSE,152,4.0,6.0,77,0.00,,,0.00,Wunderground v.1.15,2014-01-08 05:12:00,
2014-01-08 00:18:00,8.5,2.8,30.38,South,181,3.0,6.0,77,0.00,,,0.00,Wunderground v.1.15,2014-01-08 05:18:00,
2014-01-08 00:24:00,8.5,3.0,30.38,SW,215,2.0,3.0,78,0.00,,,0.00,Wunderground v.1.15,2014-01-08 05:24:00,
2014-01-08 00:26:00,8.4,2.9,30.38,SSW,204,2.0,3.0,78,0.00,,,0.00,Wunderground v.1.15,2014-01-08 05:26:00,
2014-01-08 00:32:00,8.4,3.2,30.38,SSE,150,1.0,1.0,79,0.00,,,0.00,Wunderground v.1.15,2014-01-08 05:32:00,
2014-01-08 00:38:00,8.3,3.4,30.37,SE,143,0.0,1.0,80,0.00,,,0.00,Wunderground v.1.15,2014-01-08 05:38:00,
2014-01-08 00:44:00,8.1,3.5,30.37,South,190,0.0,1.0,81,0.00,,,0.00,Wunderground v.1.15,2014-01-08 05:44:00,
2014-01-08 00:50:00,8.0,3.4,30.37,SW,219,0.0,0.0,81,0.00,,,0.00,Wunderground v.1.15,2014-01-08 05:50:00,
2014-01-08 00:56:00,8.1,3.2,30.37,South,188,1.0,4.0,80,0.00,,,0.00,Wunderground v.1.15,2014-01-08 05:56:00,
2014-01-08 01:02:00,8.3,3.4,30.37,South,186,3.0,3.0,80,0.00,,,0.00,Wunderground v.1.15,2014-01-08 06:02:00,
2014-01-08 01:08:00,8.4,3.2,30.37,SSW,201,3.0,4.0,79,0.00,,,0.00,Wunderground v.1.15,2014-01-08 06:08:00,
2014-01-08 01:14:00,8.2,3.0,30.37,WSW,243,2.0,3.0,79,0.00,,,0.00,Wunderground v.1.15,2014-01-08 06:14:00,
2014-01-08 01:20:00,7.5,2.3,30.37,SE,127,0.0,0.0,79,0.00,,,0.00,Wunderground v.1.15,2014-01-08 06:20:00,
2014-01-08 01:26:00,6.7,1.6,30.37,SSW,198,0.0,2.0,79,0.00,,,0.00,Wunderground v.1.15,2014-01-08 06:26:00,
2014-01-08 01:32:00,5.7,0.9,30.36,East,87,0.0,0.0,80,0.00,,,0.00,Wunderground v.1.15,2014-01-08 06:32:00,
2014-01-08 01:38:00,4.9,0.6,30.36,East,87,0.0,1.0,82,0.00,,,0.00,Wunderground v.1.15,2014-01-08 06:38:00,
2014-01-08 01:44:00,4.3,0.3,30.36,East,88,0.0,1.0,83,0.00,,,0.00,Wunderground v.1.15,2014-01-08 06:44:00,
2014-01-08 01:52:00,4.1,0.3,30.36,East,89,0.0,0.0,84,0.00,,,0.00,Wunderground v.1.15,2014-01-08 06:52:00,
2014-01-08 01:58:00,3.9,0.1,30.36,East,88,0.0,0.0,84,0.00,,,0.00,Wunderground v.1.15,2014-01-08 06:58:00,
2014-01-08 02:04:00,3.5,-0.5,30.36,East,87,0.0,0.0,83,0.00,,,0.00,Wunderground v.1.15,2014-01-08 07:04:00,
2014-01-08 02:10:00,3.0,-1.0,30.37,East,88,0.0,0.0,83,0.00,,,0.00,Wunderground v.1.15,2014-01-08 07:10:00,
2014-01-08 02:16:00,2.7,-1.3,30.37,East,88,0.0,0.0,83,0.00,,,0.00,Wunderground v.1.15,2014-01-08 07:16:00,
2014-01-08 02:22:00,2.4,-1.6,30.38,East,89,0.0,0.0,83,0.00,,,0.00,Wunderground v.1.15,2014-01-08 07:22:00,
2014-01-08 02:28:00,2.2,-1.5,30.38,East,89,0.0,0.0,84,0.00,,,0.00,Wunderground v.1.15,2014-01-08 07:28:00,
2014-01-08 02:34:00,2.3,-1.2,30.38,ESE,119,0.0,0.0,85,0.00,,,0.00,Wunderground v.1.15,2014-01-08 07:34:00,
2014-01-08 02:40:00,2.0,-2.0,30.38,ESE,117,0.0,0.0,83,0.00,,,0.00,Wunderground v.1.15,2014-01-08 07:40:00,
2014-01-08 02:46:00,1.8,-1.9,30.38,ESE,115,0.0,0.0,84,0.00,,,0.00,Wunderground v.1.15,2014-01-08 07:46:00,
2014-01-08 02:52:00,1.6,-2.1,30.38,ESE,113,0.0,0.0,84,0.00,,,0.00,Wunderground v.1.15,2014-01-08 07:52:00,
2014-01-08 02:58:00,1.4,-2.3,30.38,SE,131,0.0,1.0,84,0.00,,,0.00,Wunderground v.1.15,2014-01-08 07:58:00,
2014-01-08 03:04:00,1.7,-1.8,30.39,SE,124,0.0,1.0,85,0.00,,,0.00,Wunderground v.1.15,2014-01-08 08:04:00,
2014-01-08 03:10:00,2.2,-1.3,30.39,South,183,0.0,0.0,85,0.00,,,0.00,Wunderground v.1.15,2014-01-08 08:10:00,
2014-01-08 03:16:00,2.1,-1.6,30.39,ESE,105,0.0,0.0,84,0.00,,,0.00,Wunderground v.1.15,2014-01-08 08:16:00,
2014-01-08 03:22:00,2.2,-1.3,30.39,SSE,153,0.0,1.0,85,0.00,,,0.00,Wunderground v.1.15,2014-01-08 08:22:00,
2014-01-08 03:28:00,2.8,-0.4,30.39,SSE,152,1.0,2.0,86,0.00,,,0.00,Wunderground v.1.15,2014-01-08 08:28:00,
2014-01-08 03:34:00,3.9,0.4,30.39,ESE,117,1.0,1.0,85,0.00,,,0.00,Wunderground v.1.15,2014-01-08 08:34:00,
2014-01-08 03:40:00,4.5,0.7,30.39,SE,131,1.0,2.0,84,0.00,,,0.00,Wunderground v.1.15,2014-01-08 08:40:00,
2014-01-08 03:46:00,5.0,1.2,30.38,East,88,1.0,3.0,84,0.00,,,0.00,Wunderground v.1.15,2014-01-08 08:46:00,
2014-01-08 03:52:00,6.5,2.7,30.38,South,188,2.0,4.0,84,0.00,,,0.00,Wunderground v.1.15,2014-01-08 08:52:00,
2014-01-08 03:58:00,7.6,3.3,30.38,South,181,4.0,5.0,82,0.00,,,0.00,Wunderground v.1.15,2014-01-08 08:58:00,
2014-01-08 04:04:00,8.1,3.5,30.38,SSW,206,4.0,6.0,81,0.00,,,0.00,Wunderground v.1.15,2014-01-08 09:04:00,
2014-01-08 04:10:00,8.4,3.5,30.38,SSE,159,4.0,4.0,80,0.00,,,0.00,Wunderground v.1.15,2014-01-08 09:10:00,
2014-01-08 04:16:00,8.5,3.6,30.38,SSW,205,4.0,5.0,80,0.00,,,0.00,Wunderground v.1.15,2014-01-08 09:16:00,
2014-01-08 04:22:00,8.7,3.8,30.38,SSW,208,4.0,6.0,80,0.00,,,0.00,Wunderground v.1.15,2014-01-08 09:22:00,
2014-01-08 04:28:00,8.8,3.6,30.38,South,191,5.0,6.0,79,0.00,,,0.00,Wunderground v.1.15,2014-01-08 09:28:00,
2014-01-08 04:34:00,8.9,3.7,30.38,SSW,203,5.0,6.0,79,0.00,,,0.00,Wunderground v.1.15,2014-01-08 09:34:00,
2014-01-08 04:40:00,9.1,3.9,30.38,SSW,193,4.0,5.0,79,0.00,,,0.00,Wunderground v.1.15,2014-01-08 09:40:00,
2014-01-08 04:46:00,9.2,4.0,30.38,SSW,198,5.0,6.0,79,0.00,,,0.00,Wunderground v.1.15,2014-01-08 09:46:00,
2014-01-08 04:52:00,9.3,4.4,30.38,SSW,203,5.0,5.0,80,0.00,,,0.00,Wunderground v.1.15,2014-01-08 09:52:00,
2014-01-08 04:58:00,9.4,4.2,30.37,SSE,163,4.0,5.0,79,0.00,,,0.00,Wunderground v.1.15,2014-01-08 09:58:00,
2014-01-08 05:04:00,9.5,4.6,30.38,SSE,167,4.0,4.0,80,0.00,,,0.00,Wunderground v.1.15,2014-01-08 10:04:00,
2014-01-08 05:10:00,9.5,4.6,30.37,SSW,203,4.0,5.0,80,0.00,,,0.00,Wunderground v.1.15,2014-01-08 10:10:00,
2014-01-08 05:16:00,9.6,4.7,30.37,SSE,165,4.0,5.0,80,0.00,,,0.00,Wunderground v.1.15,2014-01-08 10:16:00,
2014-01-08 05:22:00,9.7,4.8,30.37,SSE,168,4.0,4.0,80,0.00,,,0.00,Wunderground v.1.15,2014-01-08 10:22:00,
2014-01-08 05:28:00,9.7,4.8,30.37,SSW,195,4.0,6.0,80,0.00,,,0.00,Wunderground v.1.15,2014-01-08 10:28:00,
2014-01-08 05:34:00,9.8,4.9,30.37,SSW,208,4.0,4.0,80,0.00,,,0.00,Wunderground v.1.15,2014-01-08 10:34:00,
2014-01-08 05:40:00,9.9,5.0,30.37,South,186,4.0,4.0,80,0.00,,,0.00,Wunderground v.1.15,2014-01-08 10:40:00,
2014-01-08 05:46:00,9.9,5.0,30.37,SSW,198,4.0,7.0,80,0.00,,,0.00,Wunderground v.1.15,2014-01-08 10:46:00,
2014-01-08 05:52:00,10.0,5.1,30.37,South,188,5.0,5.0,80,0.00,,,0.00,Wunderground v.1.15,2014-01-08 10:52:00,
2014-01-08 05:58:00,9.9,4.7,30.37,South,182,6.0,8.0,79,0.00,,,0.00,Wunderground v.1.15,2014-01-08 10:58:00,
2014-01-08 06:04:00,9.8,4.6,30.37,SSW,197,6.0,7.0,79,0.00,,,0.00,Wunderground v.1.15,2014-01-08 11:04:00,
2014-01-08 06:10:00,9.7,4.5,30.36,SSW,201,5.0,5.0,79,0.00,,,0.00,Wunderground v.1.15,2014-01-08 11:10:00,
2014-01-08 06:16:00,9.4,4.2,30.36,SSE,162,3.0,5.0,79,0.00,,,0.00,Wunderground v.1.15,2014-01-08 11:16:00,
2014-01-08 06:22:00,9.1,4.2,30.36,South,191,2.0,2.0,80,0.00,,,0.00,Wunderground v.1.15,2014-01-08 11:22:00,
2014-01-08 06:28:00,8.9,4.0,30.36,SSW,193,3.0,3.0,80,0.00,,,0.00,Wunderground v.1.15,2014-01-08 11:28:00,
2014-01-08 06:34:00,8.8,3.9,30.37,South,177,2.0,4.0,80,0.00,,,0.00,Wunderground v.1.15,2014-01-08 11:34:00,
2014-01-08 06:40:00,8.7,3.8,30.37,SE,139,3.0,3.0,80,0.00,,,0.00,Wunderground v.1.15,2014-01-08 11:40:00,
2014-01-08 06:46:00,8.2,3.0,30.36,East,84,2.0,3.0,79,0.00,,,0.00,Wunderground v.1.15,2014-01-08 11:46:00,
2014-01-08 06:52:00,7.2,2.3,30.37,West,271,0.0,0.0,80,0.00,,,0.00,Wunderground v.1.15,2014-01-08 11:52:00,
2014-01-08 06:58:00,6.7,2.1,30.37,SE,136,0.0,0.0,81,0.00,,,0.00,Wunderground v.1.15,2014-01-08 11:58:00,
2014-01-08 07:04:00,6.1,1.8,30.37,WSW,244,0.0,0.0,82,0.00,,,0.00,Wunderground v.1.15,2014-01-08 12:04:00,
2014-01-08 07:10:00,5.7,1.7,30.37,WSW,245,0.0,0.0,83,0.00,,,0.00,Wunderground v.1.15,2014-01-08 12:10:00,
2014-01-08 07:16:00,5.3,1.5,30.38,ESE,115,0.0,0.0,84,0.00,,,0.00,Wunderground v.1.15,2014-01-08 12:16:00,
2014-01-08 07:22:00,4.9,1.1,30.38,ESE,114,0.0,0.0,84,0.00,,,0.00,Wunderground v.1.15,2014-01-08 12:22:00,
2014-01-08 07:28:00,4.8,1.3,30.38,ESE,115,0.0,0.0,85,0.00,,,0.00,Wunderground v.1.15,2014-01-08 12:28:00,
2014-01-08 07:34:00,4.7,1.2,30.38,ESE,115,0.0,0.0,85,0.00,,,0.00,Wunderground v.1.15,2014-01-08 12:34:00,
2014-01-08 07:40:00,4.7,1.2,30.38,ESE,114,0.0,0.0,85,0.00,,,0.00,Wunderground v.1.15,2014-01-08 12:40:00,
2014-01-08 07:46:00,4.6,1.1,30.38,ESE,114,0.0,0.0,85,0.00,,,0.00,Wunderground v.1.15,2014-01-08 12:46:00,
2014-01-08 07:52:00,4.7,1.4,30.38,East,88,0.0,0.0,86,0.00,,,0.00,Wunderground v.1.15,2014-01-08 12:52:00,
2014-01-08 07:58:00,4.7,1.4,30.38,East,100,0.0,0.0,86,0.00,,,0.00,Wunderground v.1.15,2014-01-08 12:58:00,
2014-01-08 08:04:00,4.8,1.5,30.38,East,100,0.0,0.0,86,0.00,,,0.00,Wunderground v.1.15,2014-01-08 13:04:00,
2014-01-08 08:10:00,4.9,1.6,30.38,East,100,0.0,0.0,86,0.00,,,0.00,Wunderground v.1.15,2014-01-08 13:10:00,
2014-01-08 08:16:00,4.9,1.6,30.39,East,100,0.0,0.0,86,0.00,,,0.00,Wunderground v.1.15,2014-01-08 13:16:00,
2014-01-08 08:22:00,4.9,1.6,30.39,East,100,0.0,0.0,86,0.00,,,0.00,Wunderground v.1.15,2014-01-08 13:22:00,
2014-01-08 08:28:00,5.0,1.7,30.39,East,100,0.0,0.0,86,0.00,,,0.00,Wunderground v.1.15,2014-01-08 13:28:00,
2014-01-08 08:34:00,4.8,1.3,30.39,East,100,0.0,0.0,85,0.00,,,0.00,Wunderground v.1.15,2014-01-08 13:34:00,
2014-01-08 08:40:00,4.6,1.3,30.39,East,101,0.0,0.0,86,0.00,,,0.00,Wunderground v.1.15,2014-01-08 13:40:00,
2014-01-08 08:46:00,4.8,1.5,30.39,East,100,0.0,0.0,86,0.00,,,0.00,Wunderground v.1.15,2014-01-08 13:46:00,
2014-01-08 08:52:00,4.3,0.3,30.40,East,100,0.0,0.0,83,0.00,,,0.00,Wunderground v.1.15,2014-01-08 13:52:00,
2014-01-08 08:58:00,4.6,1.3,30.40,East,100,0.0,0.0,86,0.00,,,0.00,Wunderground v.1.15,2014-01-08 13:58:00,
2014-01-08 09:04:00,5.1,1.8,30.40,East,100,0.0,0.0,86,0.00,,,0.00,Wunderground v.1.15,2014-01-08 14:04:00,
2014-01-08 09:10:00,5.4,2.1,30.40,East,101,0.0,0.0,86,0.00,,,0.00,Wunderground v.1.15,2014-01-08 14:10:00,
2014-01-08 09:16:00,5.7,2.2,30.41,East,101,0.0,0.0,85,0.00,,,0.00,Wunderground v.1.15,2014-01-08 14:16:00,
2014-01-08 09:22:00,6.0,2.2,30.41,East,100,0.0,0.0,84,0.00,,,0.00,Wunderground v.1.15,2014-01-08 14:22:00,
2014-01-08 09:28:00,6.5,2.7,30.41,East,100,0.0,0.0,84,0.00,,,0.00,Wunderground v.1.15,2014-01-08 14:28:00,
2014-01-08 09:34:00,6.8,2.7,30.41,SSW,195,0.0,1.0,83,0.00,,,0.00,Wunderground v.1.15,2014-01-08 14:34:00,
2014-01-08 09:40:00,7.6,3.5,30.41,SSW,195,0.0,0.0,83,0.00,,,0.00,Wunderground v.1.15,2014-01-08 14:40:00,
2014-01-08 09:46:00,8.2,3.8,30.42,SSW,203,1.0,1.0,82,0.00,,,0.00,Wunderground v.1.15,2014-01-08 14:46:00,
2014-01-08 09:52:00,9.0,4.4,30.42,South,190,1.0,1.0,81,0.00,,,0.00,Wunderground v.1.15,2014-01-08 14:52:00,
2014-01-08 09:58:00,9.8,4.9,30.42,SE,126,2.0,4.0,80,0.00,,,0.00,Wunderground v.1.15,2014-01-08 14:58:00,
2014-01-08 10:04:00,10.4,5.2,30.42,SSW,200,2.0,3.0,79,0.00,,,0.00,Wunderground v.1.15,2014-01-08 15:04:00,
2014-01-08 10:10:00,10.8,5.3,30.42,SSW,201,3.0,3.0,78,0.00,,,0.00,Wunderground v.1.15,2014-01-08 15:10:00,
2014-01-08 10:16:00,10.8,5.0,30.43,SSW,211,2.0,3.0,77,0.00,,,0.00,Wunderground v.1.15,2014-01-08 15:16:00,
2014-01-08 10:22:00,11.1,5.6,30.42,SSW,198,2.0,3.0,78,0.00,,,0.00,Wunderground v.1.15,2014-01-08 15:22:00,
2014-01-08 10:28:00,11.3,5.8,30.43,SSW,198,3.0,4.0,78,0.00,,,0.00,Wunderground v.1.15,2014-01-08 15:28:00,
2014-01-08 10:34:00,11.6,6.3,30.43,SSW,206,4.0,4.0,79,0.00,,,0.00,Wunderground v.1.15,2014-01-08 15:34:00,
2014-01-08 10:40:00,12.2,6.9,30.43,SSW,205,4.0,4.0,79,0.00,,,0.00,Wunderground v.1.15,2014-01-08 15:40:00,
2014-01-08 10:46:00,12.5,7.2,30.43,SSW,207,4.0,4.0,79,0.00,,,0.00,Wunderground v.1.15,2014-01-08 15:46:00,
2014-01-08 10:52:00,12.7,7.1,30.43,SSW,208,4.0,4.0,78,0.00,,,0.00,Wunderground v.1.15,2014-01-08 15:52:00,
2014-01-08 10:58:00,13.2,7.6,30.44,SW,214,4.0,5.0,78,0.00,,,0.00,Wunderground v.1.15,2014-01-08 15:58:00,
2014-01-08 11:04:00,13.7,8.1,30.44,SW,221,4.0,4.0,78,0.00,,,0.00,Wunderground v.1.15,2014-01-08 16:04:00,
2014-01-08 11:10:00,14.3,8.4,30.44,SW,222,4.0,4.0,77,0.00,,,0.00,Wunderground v.1.15,2014-01-08 16:10:00,
2014-01-08 11:16:00,14.7,8.8,30.43,SW,229,4.0,5.0,77,0.00,,,0.00,Wunderground v.1.15,2014-01-08 16:16:00,
2014-01-08 11:22:00,14.8,9.2,30.43,SW,225,5.0,8.0,78,0.00,,,0.00,Wunderground v.1.15,2014-01-08 16:22:00,
2014-01-08 11:28:00,14.8,9.2,30.42,SW,231,6.0,8.0,78,0.00,,,0.00,Wunderground v.1.15,2014-01-08 16:28:00,
2014-01-08 11:34:00,15.0,9.4,30.42,SW,233,6.0,6.0,78,0.00,,,0.00,Wunderground v.1.15,2014-01-08 16:34:00,
2014-01-08 11:40:00,15.5,9.6,30.42,SW,233,5.0,6.0,77,0.00,,,0.00,Wunderground v.1.15,2014-01-08 16:40:00,
2014-01-08 11:46:00,16.0,10.1,30.41,WSW,238,6.0,7.0,77,0.00,,,0.00,Wunderground v.1.15,2014-01-08 16:46:00,
2014-01-08 11:52:00,16.2,10.0,30.41,SW,222,6.0,6.0,76,0.00,,,0.00,Wunderground v.1.15,2014-01-08 16:52:00,
2014-01-08 11:58:00,16.6,10.6,30.41,SW,232,5.0,6.0,77,0.00,,,0.00,Wunderground v.1.15,2014-01-08 16:58:00,
2014-01-08 12:00:00,16.7,10.4,30.40,SW,225,5.0,-999.0,76,0.00,,,0.00,Wunderground v.1.15,2014-01-08 17:00:00,
2014-01-08 12:04:00,16.7,10.1,30.40,WSW,252,5.0,5.0,75,0.00,,,0.00,Wunderground v.1.15,2014-01-08 17:04:00,
2014-01-08 12:05:00,16.6,10.3,30.40,WSW,248,5.0,-999.0,76,0.00,,,0.00,Wunderground v.1.15,2014-01-08 17:05:00,
2014-01-08 12:10:00,16.6,10.3,30.40,WSW,245,5.0,7.0,76,0.00,,,0.00,Wunderground v.1.15,2014-01-08 17:10:00,
2014-01-08 12:15:00,16.8,10.2,30.40,WSW,248,5.0,-999.0,75,0.00,,,0.00,Wunderground v.1.15,2014-01-08 17:15:00,
2014-01-08 12:16:00,16.6,10.3,30.40,WSW,249,6.0,7.0,76,0.00,,,0.00,Wunderground v.1.15,2014-01-08 17:16:00,
2014-01-08 12:20:00,16.8,10.2,30.40,WSW,248,5.0,-999.0,75,0.00,,,0.00,Wunderground v.1.15,2014-01-08 17:20:00,
2014-01-08 12:22:00,16.8,10.2,30.40,WSW,246,5.0,6.0,75,0.00,,,0.00,Wunderground v.1.15,2014-01-08 17:22:00,
2014-01-08 12:25:00,17.4,10.8,30.39,SW,225,4.0,-999.0,75,0.00,,,0.00,Wunderground v.1.15,2014-01-08 17:25:00,
2014-01-08 12:30:00,17.4,10.8,30.39,SW,225,4.0,-999.0,75,0.00,,,0.00,Wunderground v.1.15,2014-01-08 17:30:00,
2014-01-08 12:35:00,17.2,10.6,30.39,SW,225,4.0,-999.0,75,0.00,,,0.00,Wunderground v.1.15,2014-01-08 17:35:00,
2014-01-08 12:40:00,17.2,10.6,30.39,SW,225,4.0,-999.0,75,0.00,,,0.00,Wunderground v.1.15,2014-01-08 17:40:00,
2014-01-08 12:45:00,16.6,10.6,30.39,West,270,4.0,-999.0,77,0.00,,,0.00,Wunderground v.1.15,2014-01-08 17:45:00,
2014-01-08 12:50:00,16.6,10.6,30.39,West,270,4.0,-999.0,77,0.00,,,0.00,Wunderground v.1.15,2014-01-08 17:50:00,
2014-01-08 12:55:00,16.6,10.9,30.39,West,270,4.0,-999.0,78,0.00,,,0.00,Wunderground v.1.15,2014-01-08 17:55:00,
2014-01-08 13:00:00,16.6,10.9,30.39,West,270,4.0,-999.0,78,0.00,,,0.00,Wunderground v.1.15,2014-01-08 18:00:00,
2014-01-08 13:05:00,16.6,10.9,30.39,West,270,4.0,-999.0,78,0.00,,,0.00,Wunderground v.1.15,2014-01-08 18:05:00,
2014-01-08 13:10:00,16.6,10.9,30.39,West,270,4.0,-999.0,78,0.00,,,0.00,Wunderground v.1.15,2014-01-08 18:10:00,
2014-01-08 13:15:00,16.8,11.4,30.39,West,270,4.0,-999.0,79,0.00,,,0.00,Wunderground v.1.15,2014-01-08 18:15:00,
2014-01-08 13:20:00,16.8,11.4,30.39,West,270,4.0,-999.0,79,0.00,,,0.00,Wunderground v.1.15,2014-01-08 18:20:00,
2014-01-08 13:25:00,17.0,11.3,30.39,West,270,3.0,-999.0,78,0.00,,,0.00,Wunderground v.1.15,2014-01-08 18:25:00,
2014-01-08 13:30:00,17.0,11.3,30.39,West,270,3.0,-999.0,78,0.00,,,0.00,Wunderground v.1.15,2014-01-08 18:30:00,
2014-01-08 13:35:00,16.3,10.9,30.39,West,270,3.0,-999.0,79,0.00,,,0.00,Wunderground v.1.15,2014-01-08 18:35:00,
2014-01-08 13:40:00,16.3,10.9,30.39,West,270,3.0,-999.0,79,0.00,,,0.00,Wunderground v.1.15,2014-01-08 18:40:00,
2014-01-08 13:45:00,16.3,11.2,30.39,West,270,3.0,-999.0,80,0.00,,,0.00,Wunderground v.1.15,2014-01-08 18:45:00,
2014-01-08 13:50:00,16.3,11.2,30.39,West,270,3.0,-999.0,80,0.00,,,0.00,Wunderground v.1.15,2014-01-08 18:50:00,
2014-01-08 13:55:00,16.6,11.2,30.38,WNW,293,3.0,-999.0,79,0.00,,,0.00,Wunderground v.1.15,2014-01-08 18:55:00,
2014-01-08 14:00:00,16.6,11.2,30.38,WNW,293,3.0,-999.0,79,0.00,,,0.00,Wunderground v.1.15,2014-01-08 19:00:00,
2014-01-08 14:05:00,16.8,11.7,30.39,WNW,293,4.0,-999.0,80,0.00,,,0.00,Wunderground v.1.15,2014-01-08 19:05:00,
2014-01-08 14:10:00,16.8,11.7,30.39,WNW,293,4.0,-999.0,80,0.00,,,0.00,Wunderground v.1.15,2014-01-08 19:10:00,
2014-01-08 14:15:00,17.1,11.7,30.39,West,270,4.0,-999.0,79,0.00,,,0.00,Wunderground v.1.15,2014-01-08 19:15:00,
2014-01-08 14:20:00,17.1,11.7,30.39,West,270,4.0,-999.0,79,0.00,,,0.00,Wunderground v.1.15,2014-01-08 19:20:00,
2014-01-08 14:25:00,17.4,12.0,30.39,West,270,5.0,-999.0,79,0.00,,,0.00,Wunderground v.1.15,2014-01-08 19:25:00,
2014-01-08 14:30:00,17.4,12.0,30.39,West,270,5.0,-999.0,79,0.00,,,0.00,Wunderground v.1.15,2014-01-08 19:30:00,
2014-01-08 14:35:00,17.5,12.1,30.39,West,270,4.0,-999.0,79,0.00,,,0.00,Wunderground v.1.15,2014-01-08 19:35:00,
2014-01-08 14:40:00,17.5,12.1,30.39,West,270,4.0,-999.0,79,0.00,,,0.00,Wunderground v.1.15,2014-01-08 19:40:00,
2014-01-08 14:45:00,17.8,12.1,30.39,West,270,4.0,-999.0,78,0.00,,,0.00,Wunderground v.1.15,2014-01-08 19:45:00,
2014-01-08 14:50:00,17.8,12.1,30.39,West,270,4.0,-999.0,78,0.00,,,0.00,Wunderground v.1.15,2014-01-08 19:50:00,
2014-01-08 14:55:00,18.0,12.3,30.39,West,270,4.0,-999.0,78,0.00,,,0.00,Wunderground v.1.15,2014-01-08 19:55:00,
2014-01-08 15:00:00,18.0,12.3,30.39,West,270,4.0,-999.0,78,0.00,,,0.00,Wunderground v.1.15,2014-01-08 20:00:00,
2014-01-08 15:05:00,18.2,12.5,30.40,WSW,248,4.0,-999.0,78,0.00,,,0.00,Wunderground v.1.15,2014-01-08 20:05:00,
2014-01-08 15:10:00,18.2,12.5,30.40,WSW,248,4.0,-999.0,78,0.00,,,0.00,Wunderground v.1.15,2014-01-08 20:10:00,
2014-01-08 15:15:00,18.3,12.6,30.41,WSW,248,5.0,-999.0,78,0.00,,,0.00,Wunderground v.1.15,2014-01-08 20:15:00,
2014-01-08 15:20:00,18.3,12.6,30.41,WSW,248,5.0,-999.0,78,0.00,,,0.00,Wunderground v.1.15,2014-01-08 20:20:00,
2014-01-08 15:25:00,18.4,13.0,30.41,WSW,248,5.0,-999.0,79,0.00,,,0.00,Wunderground v.1.15,2014-01-08 20:25:00,
2014-01-08 15:30:00,18.4,13.0,30.41,WSW,248,5.0,-999.0,79,0.00,,,0.00,Wunderground v.1.15,2014-01-08 20:30:00,
2014-01-08 15:35:00,18.4,13.0,30.42,West,270,4.0,-999.0,79,0.00,,,0.00,Wunderground v.1.15,2014-01-08 20:35:00,
2014-01-08 15:40:00,18.4,13.0,30.42,West,270,4.0,-999.0,79,0.00,,,0.00,Wunderground v.1.15,2014-01-08 20:40:00,
2014-01-08 15:45:00,18.5,13.1,30.42,WSW,248,5.0,-999.0,79,0.00,,,0.00,Wunderground v.1.15,2014-01-08 20:45:00,
2014-01-08 15:50:00,18.5,13.1,30.42,WSW,248,5.0,-999.0,79,0.00,,,0.00,Wunderground v.1.15,2014-01-08 20:50:00,
2014-01-08 15:55:00,18.4,13.0,30.42,West,270,6.0,-999.0,79,0.00,,,0.00,Wunderground v.1.15,2014-01-08 20:55:00,
2014-01-08 16:00:00,18.4,13.0,30.42,West,270,6.0,-999.0,79,0.00,,,0.00,Wunderground v.1.15,2014-01-08 21:00:00,
2014-01-08 16:05:00,18.3,12.9,30.43,WSW,248,6.0,-999.0,79,0.00,,,0.00,Wunderground v.1.15,2014-01-08 21:05:00,
2014-01-08 16:10:00,18.3,12.9,30.43,WSW,248,6.0,-999.0,79,0.00,,,0.00,Wunderground v.1.15,2014-01-08 21:10:00,
2014-01-08 16:15:00,18.3,13.2,30.43,WSW,248,6.0,-999.0,80,0.00,,,0.00,Wunderground v.1.15,2014-01-08 21:15:00,
2014-01-08 16:20:00,18.3,13.2,30.43,WSW,248,6.0,-999.0,80,0.00,,,0.00,Wunderground v.1.15,2014-01-08 21:20:00,
2014-01-08 16:25:00,17.9,13.3,30.43,WSW,248,7.0,-999.0,82,0.00,,,0.00,Wunderground v.1.15,2014-01-08 21:25:00,
2014-01-08 16:30:00,17.9,13.3,30.43,WSW,248,7.0,-999.0,82,0.00,,,0.00,Wunderground v.1.15,2014-01-08 21:30:00,
2014-01-08 16:35:00,17.7,13.7,30.43,WSW,248,6.0,-999.0,84,0.00,,,0.00,Wunderground v.1.15,2014-01-08 21:35:00,
2014-01-08 16:40:00,17.7,13.7,30.43,WSW,248,6.0,-999.0,84,0.00,,,0.00,Wunderground v.1.15,2014-01-08 21:40:00,
2014-01-08 16:45:00,17.5,13.8,30.43,West,270,5.0,-999.0,85,0.00,,,0.00,Wunderground v.1.15,2014-01-08 21:45:00,
2014-01-08 16:50:00,17.5,13.8,30.43,West,270,5.0,-999.0,85,0.00,,,0.00,Wunderground v.1.15,2014-01-08 21:50:00,
2014-01-08 16:55:00,17.4,13.9,30.44,West,270,4.0,-999.0,86,0.00,,,0.00,Wunderground v.1.15,2014-01-08 21:55:00,
2014-01-08 17:00:00,17.4,13.9,30.44,West,270,4.0,-999.0,86,0.00,,,0.00,Wunderground v.1.15,2014-01-08 22:00:00,
2014-01-08 17:05:00,17.3,13.8,30.44,WSW,248,4.0,-999.0,86,0.00,,,0.00,Wunderground v.1.15,2014-01-08 22:05:00,
2014-01-08 17:10:00,17.3,13.8,30.44,WSW,248,4.0,-999.0,86,0.00,,,0.00,Wunderground v.1.15,2014-01-08 22:10:00,
2014-01-08 17:15:00,17.3,13.8,30.44,West,270,3.0,-999.0,86,0.00,,,0.00,Wunderground v.1.15,2014-01-08 22:15:00,
2014-01-08 17:20:00,17.3,13.8,30.44,West,270,3.0,-999.0,86,0.00,,,0.00,Wunderground v.1.15,2014-01-08 22:20:00,
2014-01-08 17:25:00,17.1,13.6,30.45,WSW,248,3.0,-999.0,86,0.00,,,0.00,Wunderground v.1.15,2014-01-08 22:25:00,
2014-01-08 17:30:00,17.1,13.6,30.45,WSW,248,3.0,-999.0,86,0.00,,,0.00,Wunderground v.1.15,2014-01-08 22:30:00,
2014-01-08 17:35:00,17.0,13.5,30.45,West,270,4.0,-999.0,86,0.00,,,0.00,Wunderground v.1.15,2014-01-08 22:35:00,
2014-01-08 17:40:00,17.0,13.5,30.45,West,270,4.0,-999.0,86,0.00,,,0.00,Wunderground v.1.15,2014-01-08 22:40:00,
2014-01-08 17:45:00,16.9,13.4,30.45,West,270,4.0,-999.0,86,0.00,,,0.00,Wunderground v.1.15,2014-01-08 22:45:00,
2014-01-08 17:50:00,16.9,13.4,30.45,West,270,4.0,-999.0,86,0.00,,,0.00,Wunderground v.1.15,2014-01-08 22:50:00,
2014-01-08 18:00:00,16.8,13.6,30.45,West,278,3.0,7.0,87,0.00,,,0.00,Wunderground v.1.15,2014-01-08 23:00:00,
2014-01-08 18:06:00,16.8,13.6,30.45,West,269,3.0,3.0,87,0.00,,,0.00,Wunderground v.1.15,2014-01-08 23:06:00,
2014-01-08 18:12:00,16.8,13.6,30.45,WNW,283,3.0,3.0,87,0.00,,,0.00,Wunderground v.1.15,2014-01-08 23:12:00,
2014-01-08 18:18:00,16.8,13.6,30.46,West,259,4.0,6.0,87,0.00,,,0.00,Wunderground v.1.15,2014-01-08 23:18:00,
2014-01-08 18:24:00,16.8,13.6,30.46,WSW,255,4.0,4.0,87,0.00,,,0.00,Wunderground v.1.15,2014-01-08 23:24:00,
2014-01-08 18:30:00,16.8,13.6,30.46,West,262,4.0,4.0,87,0.00,,,0.00,Wunderground v.1.15,2014-01-08 23:30:00,
2014-01-08 18:36:00,16.8,13.6,30.46,West,278,3.0,4.0,87,0.00,,,0.00,Wunderground v.1.15,2014-01-08 23:36:00,
2014-01-08 18:42:00,16.7,12.7,30.46,WNW,294,3.0,4.0,84,0.00,,,0.00,Wunderground v.1.15,2014-01-08 23:42:00,
2014-01-08 18:48:00,16.6,12.3,30.47,WNW,288,3.0,5.0,83,0.00,,,0.00,Wunderground v.1.15,2014-01-08 23:48:00,
2014-01-08 18:54:00,16.5,12.2,30.47,WNW,293,4.0,5.0,83,0.00,,,0.00,Wunderground v.1.15,2014-01-08 23:54:00,
2014-01-08 19:00:00,16.4,11.9,30.47,WNW,296,4.0,4.0,82,0.00,,,0.00,Wunderground v.1.15,2014-01-09 00:00:00,
2014-01-08 19:06:00,16.4,11.9,30.47,WNW,288,3.0,5.0,82,0.00,,,0.00,Wunderground v.1.15,2014-01-09 00:06:00,
2014-01-08 19:12:00,16.2,11.4,30.47,WNW,285,3.0,5.0,81,0.00,,,0.00,Wunderground v.1.15,2014-01-09 00:12:00,
2014-01-08 19:18:00,16.0,10.9,30.47,WNW,282,3.0,5.0,80,0.00,,,0.00,Wunderground v.1.15,2014-01-09 00:18:00,
2014-01-08 19:24:00,15.7,10.9,30.47,WNW,287,4.0,5.0,81,0.00,,,0.00,Wunderground v.1.15,2014-01-09 00:24:00,
2014-01-08 19:30:00,15.5,10.7,30.47,West,280,4.0,4.0,81,0.00,,,0.00,Wunderground v.1.15,2014-01-09 00:30:00,
2014-01-08 19:36:00,15.3,10.8,30.47,WNW,284,3.0,5.0,82,0.00,,,0.00,Wunderground v.1.15,2014-01-09 00:36:00,
2014-01-08 19:42:00,15.0,10.5,30.47,WNW,283,3.0,5.0,82,0.00,,,0.00,Wunderground v.1.15,2014-01-09 00:42:00,
2014-01-08 19:48:00,15.0,10.8,30.48,WNW,286,2.0,5.0,83,0.00,,,0.00,Wunderground v.1.15,2014-01-09 00:48:00,
2014-01-08 19:54:00,15.0,10.8,30.48,WNW,288,2.0,5.0,83,0.00,,,0.00,Wunderground v.1.15,2014-01-09 00:54:00,
2014-01-08 20:00:00,14.9,10.9,30.48,WNW,296,2.0,2.0,84,0.00,,,0.00,Wunderground v.1.15,2014-01-09 01:00:00,
2014-01-08 20:06:00,14.8,10.8,30.48,WNW,297,1.0,5.0,84,0.00,,,0.00,Wunderground v.1.15,2014-01-09 01:06:00,
2014-01-08 20:12:00,14.9,10.7,30.48,NW,308,2.0,5.0,83,0.00,,,0.00,Wunderground v.1.15,2014-01-09 01:12:00,
2014-01-08 20:18:00,14.7,10.5,30.48,NW,307,2.0,5.0,83,0.00,,,0.00,Wunderground v.1.15,2014-01-09 01:18:00,
2014-01-08 20:24:00,14.2,10.0,30.48,NW,312,1.0,5.0,83,0.00,,,0.00,Wunderground v.1.15,2014-01-09 01:24:00,
2014-01-08 20:30:00,13.9,9.4,30.48,NW,314,2.0,5.0,82,0.00,,,0.00,Wunderground v.1.15,2014-01-09 01:30:00,
2014-01-08 20:36:00,13.5,9.0,30.48,NW,314,1.0,5.0,82,0.00,,,0.00,Wunderground v.1.15,2014-01-09 01:36:00,
2014-01-08 20:42:00,13.2,9.0,30.48,NW,314,1.0,5.0,83,0.00,,,0.00,Wunderground v.1.15,2014-01-09 01:42:00,
2014-01-08 20:48:00,12.8,8.3,30.49,NW,314,0.0,5.0,82,0.00,,,0.00,Wunderground v.1.15,2014-01-09 01:48:00,
2014-01-08 20:54:00,12.6,8.4,30.49,NW,314,0.0,5.0,83,0.00,,,0.00,Wunderground v.1.15,2014-01-09 01:54:00,
2014-01-08 21:00:00,12.5,8.3,30.49,NW,315,0.0,5.0,83,0.00,,,0.00,Wunderground v.1.15,2014-01-09 02:00:00,
2014-01-08 21:06:00,12.1,8.2,30.49,NW,312,0.0,5.0,84,0.00,,,0.00,Wunderground v.1.15,2014-01-09 02:06:00,
2014-01-08 21:12:00,11.8,7.9,30.50,NW,312,0.0,5.0,84,0.00,,,0.00,Wunderground v.1.15,2014-01-09 02:12:00,
2014-01-08 21:18:00,11.5,7.6,30.50,NW,312,0.0,5.0,84,0.00,,,0.00,Wunderground v.1.15,2014-01-09 02:18:00,
2014-01-08 21:24:00,11.1,7.2,30.50,SW,224,0.0,5.0,84,0.00,,,0.00,Wunderground v.1.15,2014-01-09 02:24:00,
2014-01-08 21:30:00,11.4,8.0,30.51,SW,224,0.0,5.0,86,0.00,,,0.00,Wunderground v.1.15,2014-01-09 02:30:00,
2014-01-08 21:36:00,11.5,7.9,30.51,SW,224,0.0,5.0,85,0.00,,,0.00,Wunderground v.1.15,2014-01-09 02:36:00,
2014-01-08 21:42:00,11.3,7.7,30.51,SW,224,0.0,5.0,85,0.00,,,0.00,Wunderground v.1.15,2014-01-09 02:42:00,
2014-01-08 21:48:00,11.1,7.2,30.51,SW,224,0.0,5.0,84,0.00,,,0.00,Wunderground v.1.15,2014-01-09 02:48:00,
2014-01-08 21:54:00,10.7,6.8,30.51,SW,224,0.0,5.0,84,0.00,,,0.00,Wunderground v.1.15,2014-01-09 02:54:00,
2014-01-08 22:00:00,10.4,6.8,30.51,SW,224,0.0,5.0,85,0.00,,,0.00,Wunderground v.1.15,2014-01-09 03:00:00,
2014-01-08 22:06:00,10.7,7.3,30.52,SW,224,0.0,5.0,86,0.00,,,0.00,Wunderground v.1.15,2014-01-09 03:06:00,
2014-01-08 22:12:00,10.9,7.3,30.52,SW,224,0.0,5.0,85,0.00,,,0.00,Wunderground v.1.15,2014-01-09 03:12:00,
2014-01-08 22:18:00,10.7,7.1,30.52,SW,224,0.0,5.0,85,0.00,,,0.00,Wunderground v.1.15,2014-01-09 03:18:00,
2014-01-08 22:24:00,10.4,6.5,30.52,SW,224,0.0,5.0,84,0.00,,,0.00,Wunderground v.1.15,2014-01-09 03:24:00,
2014-01-08 22:30:00,10.2,6.6,30.52,SW,224,0.0,5.0,85,0.00,,,0.00,Wunderground v.1.15,2014-01-09 03:30:00,
2014-01-08 22:36:00,10.1,6.7,30.52,SW,224,0.0,5.0,86,0.00,,,0.00,Wunderground v.1.15,2014-01-09 03:36:00,
2014-01-08 22:42:00,9.9,6.6,30.52,SW,224,0.0,5.0,86,0.00,,,0.00,Wunderground v.1.15,2014-01-09 03:42:00,
2014-01-08 22:48:00,10.1,7.0,30.52,SW,224,0.0,5.0,87,0.00,,,0.00,Wunderground v.1.15,2014-01-09 03:48:00,
2014-01-08 22:54:00,10.3,7.2,30.52,SW,224,0.0,5.0,87,0.00,,,0.00,Wunderground v.1.15,2014-01-09 03:54:00,
2014-01-08 23:00:00,10.2,7.1,30.52,SW,224,0.0,5.0,87,0.00,,,0.00,Wunderground v.1.15,2014-01-09 04:00:00,
2014-01-08 23:06:00,10.2,7.1,30.52,SW,224,0.0,5.0,87,0.00,,,0.00,Wunderground v.1.15,2014-01-09 04:06:00,
2014-01-08 23:12:00,10.1,6.7,30.52,SW,224,0.0,5.0,86,0.00,,,0.00,Wunderground v.1.15,2014-01-09 04:12:00,
2014-01-08 23:18:00,9.9,6.6,30.53,SW,224,0.0,5.0,86,0.00,,,0.00,Wunderground v.1.15,2014-01-09 04:18:00,
2014-01-08 23:24:00,10.0,6.9,30.52,WSW,243,0.0,5.0,87,0.00,,,0.00,Wunderground v.1.15,2014-01-09 04:24:00,
2014-01-08 23:30:00,10.3,7.2,30.53,WSW,243,0.0,5.0,87,0.00,,,0.00,Wunderground v.1.15,2014-01-09 04:30:00,
2014-01-08 23:36:00,10.5,7.4,30.52,WSW,243,0.0,5.0,87,0.00,,,0.00,Wunderground v.1.15,2014-01-09 04:36:00,
2014-01-08 23:42:00,10.6,7.5,30.53,WSW,243,0.0,5.0,87,0.00,,,0.00,Wunderground v.1.15,2014-01-09 04:42:00,
2014-01-08 23:48:00,10.7,7.3,30.53,WSW,243,0.0,5.0,86,0.00,,,0.00,Wunderground v.1.15,2014-01-09 04:48:00,
2014-01-08 23:54:00,10.7,7.3,30.52,WSW,243,0.0,5.0,86,0.00,,,0.00,Wunderground v.1.15,2014-01-09 04:54:00,